sensor_id;sensor_type;location;lat;lon;timestamp;P1;durP1;ratioP1;P2;durP2;ratioP2
20365;SDS011;10341;49.894;8.822;2023-10-13T00:02:46;7.43;;;4.55;;
20365;SDS011;10341;49.894;8.822;2023-10-13T00:08:07;7.28;;;4.30;;
20365;SDS011;10341;49.894;8.822;2023-10-13T00:13:28;5.82;;;3.85;;
20365;SDS011;10341;49.894;8.822;2023-10-13T00:18:51;7.15;;;4.05;;
20365;SDS011;10341;49.894;8.822;2023-10-13T00:24:16;7.72;;;4.25;;
20365;SDS011;10341;49.894;8.822;2023-10-13T00:29:42;8.35;;;4.45;;
20365;SDS011;10341;49.894;8.822;2023-10-13T00:35:02;5.80;;;3.95;;
20365;SDS011;10341;49.894;8.822;2023-10-13T00:40:24;5.50;;;3.90;;
20365;SDS011;10341;49.894;8.822;2023-10-13T00:51:16;8.63;;;4.20;;
20365;SDS011;10341;49.894;8.822;2023-10-13T00:56:41;8.00;;;5.32;;
20365;SDS011;10341;49.894;8.822;2023-10-13T01:02:14;7.70;;;4.38;;
20365;SDS011;10341;49.894;8.822;2023-10-13T01:07:52;7.40;;;4.60;;
20365;SDS011;10341;49.894;8.822;2023-10-13T01:13:13;7.07;;;4.30;;
20365;SDS011;10341;49.894;8.822;2023-10-13T01:18:32;6.72;;;4.47;;
20365;SDS011;10341;49.894;8.822;2023-10-13T01:24:00;7.28;;;4.47;;
20365;SDS011;10341;49.894;8.822;2023-10-13T01:29:19;5.95;;;4.03;;
20365;SDS011;10341;49.894;8.822;2023-10-13T01:34:45;9.23;;;4.18;;
20365;SDS011;10341;49.894;8.822;2023-10-13T01:40:07;8.63;;;5.00;;
20365;SDS011;10341;49.894;8.822;2023-10-13T01:45:27;8.25;;;5.32;;
20365;SDS011;10341;49.894;8.822;2023-10-13T01:50:49;11.65;;;5.40;;
20365;SDS011;10341;49.894;8.822;2023-10-13T01:56:14;8.93;;;4.55;;
20365;SDS011;10341;49.894;8.822;2023-10-13T02:01:34;7.57;;;4.30;;
20365;SDS011;10341;49.894;8.822;2023-10-13T02:06:54;5.35;;;3.78;;
20365;SDS011;10341;49.894;8.822;2023-10-13T02:12:15;7.00;;;4.22;;
20365;SDS011;10341;49.894;8.822;2023-10-13T02:17:36;7.03;;;4.40;;
20365;SDS011;10341;49.894;8.822;2023-10-13T02:23:00;5.32;;;3.53;;
20365;SDS011;10341;49.894;8.822;2023-10-13T02:28:19;6.70;;;4.07;;
20365;SDS011;10341;49.894;8.822;2023-10-13T02:33:47;10.27;;;4.63;;
20365;SDS011;10341;49.894;8.822;2023-10-13T02:39:06;8.37;;;4.30;;
20365;SDS011;10341;49.894;8.822;2023-10-13T02:44:28;6.28;;;4.25;;
20365;SDS011;10341;49.894;8.822;2023-10-13T02:49:52;8.25;;;4.22;;
20365;SDS011;10341;49.894;8.822;2023-10-13T02:55:11;7.33;;;4.00;;
20365;SDS011;10341;49.894;8.822;2023-10-13T03:00:34;8.85;;;4.95;;
20365;SDS011;10341;49.894;8.822;2023-10-13T03:05:53;13.02;;;5.35;;
20365;SDS011;10341;49.894;8.822;2023-10-13T03:11:11;7.57;;;4.93;;
20365;SDS011;10341;49.894;8.822;2023-10-13T03:16:32;7.15;;;5.30;;
20365;SDS011;10341;49.894;8.822;2023-10-13T03:21:53;9.50;;;5.57;;
20365;SDS011;10341;49.894;8.822;2023-10-13T03:27:23;9.60;;;5.10;;
20365;SDS011;10341;49.894;8.822;2023-10-13T03:38:05;8.27;;;5.25;;
20365;SDS011;10341;49.894;8.822;2023-10-13T03:43:36;10.50;;;5.97;;
20365;SDS011;10341;49.894;8.822;2023-10-13T03:49:03;9.75;;;5.93;;
20365;SDS011;10341;49.894;8.822;2023-10-13T03:54:24;10.68;;;5.55;;
20365;SDS011;10341;49.894;8.822;2023-10-13T03:59:48;12.63;;;5.93;;
20365;SDS011;10341;49.894;8.822;2023-10-13T04:05:08;10.05;;;5.75;;
20365;SDS011;10341;49.894;8.822;2023-10-13T04:10:28;12.88;;;6.18;;
20365;SDS011;10341;49.894;8.822;2023-10-13T04:16:03;12.75;;;7.15;;
20365;SDS011;10341;49.894;8.822;2023-10-13T04:21:41;10.23;;;5.43;;
20365;SDS011;10341;49.894;8.822;2023-10-13T04:27:01;11.32;;;5.50;;
20365;SDS011;10341;49.894;8.822;2023-10-13T04:32:33;9.75;;;5.20;;
20365;SDS011;10341;49.894;8.822;2023-10-13T04:37:57;6.95;;;4.72;;
20365;SDS011;10341;49.894;8.822;2023-10-13T04:43:20;9.20;;;5.40;;
20365;SDS011;10341;49.894;8.822;2023-10-13T04:48:52;9.57;;;5.38;;
20365;SDS011;10341;49.894;8.822;2023-10-13T04:54:19;7.55;;;4.90;;
20365;SDS011;10341;49.894;8.822;2023-10-13T04:59:45;10.73;;;5.40;;
20365;SDS011;10341;49.894;8.822;2023-10-13T05:05:27;11.75;;;5.68;;
20365;SDS011;10341;49.894;8.822;2023-10-13T05:10:49;9.75;;;5.63;;
20365;SDS011;10341;49.894;8.822;2023-10-13T05:16:27;11.25;;;5.20;;
20365;SDS011;10341;49.894;8.822;2023-10-13T05:22:05;9.18;;;5.47;;
20365;SDS011;10341;49.894;8.822;2023-10-13T05:27:43;12.45;;;5.55;;
20365;SDS011;10341;49.894;8.822;2023-10-13T05:33:21;10.23;;;5.07;;
20365;SDS011;10341;49.894;8.822;2023-10-13T05:39:00;7.35;;;5.40;;
20365;SDS011;10341;49.894;8.822;2023-10-13T05:44:38;9.70;;;4.75;;
20365;SDS011;10341;49.894;8.822;2023-10-13T05:50:12;7.80;;;5.22;;
20365;SDS011;10341;49.894;8.822;2023-10-13T05:55:38;13.55;;;6.18;;
20365;SDS011;10341;49.894;8.822;2023-10-13T06:01:16;12.85;;;5.75;;
20365;SDS011;10341;49.894;8.822;2023-10-13T06:06:54;10.35;;;5.00;;
20365;SDS011;10341;49.894;8.822;2023-10-13T06:12:32;6.93;;;4.80;;
20365;SDS011;10341;49.894;8.822;2023-10-13T06:18:10;6.63;;;4.28;;
20365;SDS011;10341;49.894;8.822;2023-10-13T06:23:48;11.48;;;4.90;;
20365;SDS011;10341;49.894;8.822;2023-10-13T06:29:26;8.00;;;4.80;;
20365;SDS011;10341;49.894;8.822;2023-10-13T06:34:46;8.97;;;5.07;;
20365;SDS011;10341;49.894;8.822;2023-10-13T06:45:44;10.63;;;4.82;;
20365;SDS011;10341;49.894;8.822;2023-10-13T06:51:16;9.82;;;4.57;;
20365;SDS011;10341;49.894;8.822;2023-10-13T06:56:40;8.80;;;4.90;;
20365;SDS011;10341;49.894;8.822;2023-10-13T07:01:59;9.10;;;4.20;;
20365;SDS011;10341;49.894;8.822;2023-10-13T07:07:27;9.00;;;4.60;;
20365;SDS011;10341;49.894;8.822;2023-10-13T07:12:46;10.52;;;4.13;;
20365;SDS011;10341;49.894;8.822;2023-10-13T07:18:08;10.93;;;4.70;;
20365;SDS011;10341;49.894;8.822;2023-10-13T07:23:31;12.88;;;3.80;;
20365;SDS011;10341;49.894;8.822;2023-10-13T07:28:51;11.40;;;4.03;;
20365;SDS011;10341;49.894;8.822;2023-10-13T07:34:10;9.73;;;3.92;;
20365;SDS011;10341;49.894;8.822;2023-10-13T07:39:45;11.15;;;4.32;;
20365;SDS011;10341;49.894;8.822;2023-10-13T07:45:09;7.28;;;3.58;;
20365;SDS011;10341;49.894;8.822;2023-10-13T07:50:32;11.35;;;3.90;;
20365;SDS011;10341;49.894;8.822;2023-10-13T07:55:53;9.63;;;3.40;;
20365;SDS011;10341;49.894;8.822;2023-10-13T08:01:15;9.52;;;3.78;;
20365;SDS011;10341;49.894;8.822;2023-10-13T08:06:37;9.35;;;3.03;;
20365;SDS011;10341;49.894;8.822;2023-10-13T08:11:59;11.38;;;3.70;;
20365;SDS011;10341;49.894;8.822;2023-10-13T08:17:19;7.72;;;3.03;;
20365;SDS011;10341;49.894;8.822;2023-10-13T08:22:43;8.43;;;3.17;;
20365;SDS011;10341;49.894;8.822;2023-10-13T08:28:06;9.35;;;3.50;;
20365;SDS011;10341;49.894;8.822;2023-10-13T08:33:48;10.50;;;3.75;;
20365;SDS011;10341;49.894;8.822;2023-10-13T08:39:07;8.32;;;3.30;;
20365;SDS011;10341;49.894;8.822;2023-10-13T08:45:02;5.28;;;3.17;;
20365;SDS011;10341;49.894;8.822;2023-10-13T08:50:42;7.50;;;3.35;;
20365;SDS011;10341;49.894;8.822;2023-10-13T08:56:08;5.85;;;3.00;;
20365;SDS011;10341;49.894;8.822;2023-10-13T09:01:51;5.78;;;3.17;;
20365;SDS011;10341;49.894;8.822;2023-10-13T09:07:43;5.50;;;3.00;;
20365;SDS011;10341;49.894;8.822;2023-10-13T09:13:06;5.70;;;3.22;;
20365;SDS011;10341;49.894;8.822;2023-10-13T09:18:30;6.65;;;3.28;;
20365;SDS011;10341;49.894;8.822;2023-10-13T09:24:04;6.78;;;3.30;;
20365;SDS011;10341;49.894;8.822;2023-10-13T09:29:54;8.40;;;3.95;;
20365;SDS011;10341;49.894;8.822;2023-10-13T09:35:25;6.00;;;3.42;;
20365;SDS011;10341;49.894;8.822;2023-10-13T09:40:46;7.50;;;3.55;;
20365;SDS011;10341;49.894;8.822;2023-10-13T09:46:20;4.85;;;3.67;;
20365;SDS011;10341;49.894;8.822;2023-10-13T09:51:45;7.38;;;3.35;;
20365;SDS011;10341;49.894;8.822;2023-10-13T09:57:16;5.93;;;3.40;;
20365;SDS011;10341;49.894;8.822;2023-10-13T10:02:38;4.60;;;3.10;;
20365;SDS011;10341;49.894;8.822;2023-10-13T10:08:03;6.78;;;3.47;;
20365;SDS011;10341;49.894;8.822;2023-10-13T10:13:32;5.85;;;3.78;;
20365;SDS011;10341;49.894;8.822;2023-10-13T10:19:00;4.75;;;3.50;;
20365;SDS011;10341;49.894;8.822;2023-10-13T10:24:21;6.63;;;3.53;;
20365;SDS011;10341;49.894;8.822;2023-10-13T10:29:53;8.38;;;3.88;;
20365;SDS011;10341;49.894;8.822;2023-10-13T10:35:13;7.30;;;3.55;;
20365;SDS011;10341;49.894;8.822;2023-10-13T10:46:27;9.35;;;4.10;;
20365;SDS011;10341;49.894;8.822;2023-10-13T10:51:47;7.47;;;4.20;;
20365;SDS011;10341;49.894;8.822;2023-10-13T10:57:07;5.78;;;3.45;;
20365;SDS011;10341;49.894;8.822;2023-10-13T11:02:53;6.85;;;3.30;;
20365;SDS011;10341;49.894;8.822;2023-10-13T11:08:22;7.38;;;3.83;;
20365;SDS011;10341;49.894;8.822;2023-10-13T11:13:51;8.18;;;3.97;;
20365;SDS011;10341;49.894;8.822;2023-10-13T11:19:13;6.40;;;3.65;;
20365;SDS011;10341;49.894;8.822;2023-10-13T11:24:39;11.38;;;4.05;;
20365;SDS011;10341;49.894;8.822;2023-10-13T11:29:59;7.38;;;3.70;;
20365;SDS011;10341;49.894;8.822;2023-10-13T11:35:24;9.68;;;3.35;;
20365;SDS011;10341;49.894;8.822;2023-10-13T11:40:44;6.43;;;3.28;;
20365;SDS011;10341;49.894;8.822;2023-10-13T11:46:24;5.78;;;3.50;;
20365;SDS011;10341;49.894;8.822;2023-10-13T11:51:53;5.60;;;3.25;;
20365;SDS011;10341;49.894;8.822;2023-10-13T11:57:34;7.70;;;3.42;;
20365;SDS011;10341;49.894;8.822;2023-10-13T12:02:54;4.25;;;3.22;;
20365;SDS011;10341;49.894;8.822;2023-10-13T12:08:32;5.70;;;2.97;;
20365;SDS011;10341;49.894;8.822;2023-10-13T12:13:57;5.60;;;3.00;;
20365;SDS011;10341;49.894;8.822;2023-10-13T12:19:17;6.07;;;3.10;;
20365;SDS011;10341;49.894;8.822;2023-10-13T12:24:42;6.45;;;3.55;;
20365;SDS011;10341;49.894;8.822;2023-10-13T12:35:26;6.20;;;3.22;;
20365;SDS011;10341;49.894;8.822;2023-10-13T12:40:49;6.93;;;3.50;;
20365;SDS011;10341;49.894;8.822;2023-10-13T12:46:26;9.75;;;3.58;;
20365;SDS011;10341;49.894;8.822;2023-10-13T12:52:04;6.93;;;3.20;;
20365;SDS011;10341;49.894;8.822;2023-10-13T12:57:35;9.27;;;3.53;;
20365;SDS011;10341;49.894;8.822;2023-10-13T13:03:01;4.35;;;3.03;;
20365;SDS011;10341;49.894;8.822;2023-10-13T13:08:30;6.97;;;3.20;;
20365;SDS011;10341;49.894;8.822;2023-10-13T13:13:53;5.10;;;2.92;;
20365;SDS011;10341;49.894;8.822;2023-10-13T13:19:13;5.80;;;3.15;;
20365;SDS011;10341;49.894;8.822;2023-10-13T13:24:33;4.25;;;2.85;;
20365;SDS011;10341;49.894;8.822;2023-10-13T13:29:52;5.70;;;3.05;;
20365;SDS011;10341;49.894;8.822;2023-10-13T13:35:11;10.20;;;3.70;;
20365;SDS011;10341;49.894;8.822;2023-10-13T13:40:32;4.43;;;3.22;;
20365;SDS011;10341;49.894;8.822;2023-10-13T13:45:53;6.68;;;3.38;;
20365;SDS011;10341;49.894;8.822;2023-10-13T13:51:16;8.23;;;5.38;;
20365;SDS011;10341;49.894;8.822;2023-10-13T13:56:37;8.48;;;3.53;;
20365;SDS011;10341;49.894;8.822;2023-10-13T14:01:57;8.15;;;5.10;;
20365;SDS011;10341;49.894;8.822;2023-10-13T14:07:20;8.30;;;3.30;;
20365;SDS011;10341;49.894;8.822;2023-10-13T14:12:42;7.18;;;3.58;;
20365;SDS011;10341;49.894;8.822;2023-10-13T14:18:01;8.27;;;3.58;;
20365;SDS011;10341;49.894;8.822;2023-10-13T14:23:24;7.85;;;3.50;;
20365;SDS011;10341;49.894;8.822;2023-10-13T14:28:44;7.82;;;3.53;;
20365;SDS011;10341;49.894;8.822;2023-10-13T14:34:29;8.70;;;3.30;;
20365;SDS011;10341;49.894;8.822;2023-10-13T14:39:49;9.75;;;3.72;;
20365;SDS011;10341;49.894;8.822;2023-10-13T14:45:08;7.78;;;3.55;;
20365;SDS011;10341;49.894;8.822;2023-10-13T14:50:31;6.93;;;3.63;;
20365;SDS011;10341;49.894;8.822;2023-10-13T14:55:52;8.25;;;3.60;;
20365;SDS011;10341;49.894;8.822;2023-10-13T15:01:14;5.85;;;3.28;;
20365;SDS011;10341;49.894;8.822;2023-10-13T15:06:34;6.03;;;3.50;;
20365;SDS011;10341;49.894;8.822;2023-10-13T15:11:53;11.00;;;3.05;;
20365;SDS011;10341;49.894;8.822;2023-10-13T15:17:12;8.67;;;3.60;;
20365;SDS011;10341;49.894;8.822;2023-10-13T15:22:34;10.30;;;3.45;;
20365;SDS011;10341;49.894;8.822;2023-10-13T15:28:01;4.75;;;3.00;;
20365;SDS011;10341;49.894;8.822;2023-10-13T15:33:28;8.23;;;3.60;;
20365;SDS011;10341;49.894;8.822;2023-10-13T15:38:55;9.90;;;3.80;;
20365;SDS011;10341;49.894;8.822;2023-10-13T15:44:15;4.97;;;3.13;;
20365;SDS011;10341;49.894;8.822;2023-10-13T15:49:35;5.90;;;3.17;;
20365;SDS011;10341;49.894;8.822;2023-10-13T15:54:54;7.25;;;3.40;;
20365;SDS011;10341;49.894;8.822;2023-10-13T16:00:15;6.43;;;3.30;;
20365;SDS011;10341;49.894;8.822;2023-10-13T16:05:44;4.72;;;3.33;;
20365;SDS011;10341;49.894;8.822;2023-10-13T16:11:06;8.00;;;3.25;;
20365;SDS011;10341;49.894;8.822;2023-10-13T16:16:26;5.22;;;3.35;;
20365;SDS011;10341;49.894;8.822;2023-10-13T16:21:46;6.85;;;3.28;;
20365;SDS011;10341;49.894;8.822;2023-10-13T16:27:05;5.28;;;3.10;;
20365;SDS011;10341;49.894;8.822;2023-10-13T16:32:25;7.18;;;3.15;;
20365;SDS011;10341;49.894;8.822;2023-10-13T16:37:45;7.00;;;3.28;;
20365;SDS011;10341;49.894;8.822;2023-10-13T16:43:09;6.32;;;3.03;;
20365;SDS011;10341;49.894;8.822;2023-10-13T16:48:29;5.55;;;3.00;;
20365;SDS011;10341;49.894;8.822;2023-10-13T16:53:50;8.23;;;3.85;;
20365;SDS011;10341;49.894;8.822;2023-10-13T16:59:09;7.50;;;3.00;;
20365;SDS011;10341;49.894;8.822;2023-10-13T17:04:29;6.50;;;2.90;;
20365;SDS011;10341;49.894;8.822;2023-10-13T17:09:48;8.00;;;3.13;;
20365;SDS011;10341;49.894;8.822;2023-10-13T17:15:07;7.13;;;3.30;;
20365;SDS011;10341;49.894;8.822;2023-10-13T17:25:58;14.75;;;8.52;;
20365;SDS011;10341;49.894;8.822;2023-10-13T17:36:37;8.63;;;3.60;;
20365;SDS011;10341;49.894;8.822;2023-10-13T17:41:57;5.43;;;3.35;;
20365;SDS011;10341;49.894;8.822;2023-10-13T17:47:19;8.40;;;3.88;;
20365;SDS011;10341;49.894;8.822;2023-10-13T17:52:39;10.70;;;3.90;;
20365;SDS011;10341;49.894;8.822;2023-10-13T17:58:03;8.02;;;3.95;;
20365;SDS011;10341;49.894;8.822;2023-10-13T18:03:24;11.30;;;5.80;;
20365;SDS011;10341;49.894;8.822;2023-10-13T18:08:43;8.82;;;4.65;;
20365;SDS011;10341;49.894;8.822;2023-10-13T18:14:03;7.53;;;4.15;;
20365;SDS011;10341;49.894;8.822;2023-10-13T18:19:25;6.97;;;3.97;;
20365;SDS011;10341;49.894;8.822;2023-10-13T18:24:46;8.68;;;4.60;;
20365;SDS011;10341;49.894;8.822;2023-10-13T18:30:05;10.73;;;4.30;;
20365;SDS011;10341;49.894;8.822;2023-10-13T18:35:25;7.40;;;3.78;;
20365;SDS011;10341;49.894;8.822;2023-10-13T18:40:54;6.60;;;3.40;;
20365;SDS011;10341;49.894;8.822;2023-10-13T18:46:14;5.23;;;2.43;;
20365;SDS011;10341;49.894;8.822;2023-10-13T18:56:54;4.55;;;2.17;;
20365;SDS011;10341;49.894;8.822;2023-10-13T19:02:13;4.90;;;1.83;;
20365;SDS011;10341;49.894;8.822;2023-10-13T19:07:32;4.53;;;1.97;;
20365;SDS011;10341;49.894;8.822;2023-10-13T19:12:51;4.57;;;1.90;;
20365;SDS011;10341;49.894;8.822;2023-10-13T19:18:13;3.85;;;1.90;;
20365;SDS011;10341;49.894;8.822;2023-10-13T19:23:32;4.07;;;1.75;;
20365;SDS011;10341;49.894;8.822;2023-10-13T19:28:52;5.20;;;1.93;;
20365;SDS011;10341;49.894;8.822;2023-10-13T19:34:12;2.97;;;2.10;;
20365;SDS011;10341;49.894;8.822;2023-10-13T19:39:36;5.55;;;1.98;;
20365;SDS011;10341;49.894;8.822;2023-10-13T19:45:01;5.05;;;2.30;;
20365;SDS011;10341;49.894;8.822;2023-10-13T19:50:21;4.80;;;2.20;;
20365;SDS011;10341;49.894;8.822;2023-10-13T19:55:41;2.95;;;2.20;;
20365;SDS011;10341;49.894;8.822;2023-10-13T20:06:25;5.30;;;2.10;;
20365;SDS011;10341;49.894;8.822;2023-10-13T20:11:46;4.93;;;2.13;;
20365;SDS011;10341;49.894;8.822;2023-10-13T20:17:05;6.15;;;2.47;;
20365;SDS011;10341;49.894;8.822;2023-10-13T20:22:26;5.60;;;2.10;;
20365;SDS011;10341;49.894;8.822;2023-10-13T20:27:46;4.85;;;1.98;;
20365;SDS011;10341;49.894;8.822;2023-10-13T20:33:05;4.37;;;2.10;;
20365;SDS011;10341;49.894;8.822;2023-10-13T20:38:28;6.28;;;2.30;;
20365;SDS011;10341;49.894;8.822;2023-10-13T20:43:47;5.80;;;2.45;;
20365;SDS011;10341;49.894;8.822;2023-10-13T20:49:07;5.32;;;2.33;;
20365;SDS011;10341;49.894;8.822;2023-10-13T20:54:33;7.60;;;2.40;;
20365;SDS011;10341;49.894;8.822;2023-10-13T20:59:52;4.43;;;2.00;;
20365;SDS011;10341;49.894;8.822;2023-10-13T21:05:13;5.22;;;2.53;;
20365;SDS011;10341;49.894;8.822;2023-10-13T21:10:33;5.97;;;2.30;;
20365;SDS011;10341;49.894;8.822;2023-10-13T21:15:54;4.00;;;2.30;;
20365;SDS011;10341;49.894;8.822;2023-10-13T21:21:17;4.47;;;2.85;;
20365;SDS011;10341;49.894;8.822;2023-10-13T21:26:42;4.18;;;2.42;;
20365;SDS011;10341;49.894;8.822;2023-10-13T21:32:01;6.23;;;2.83;;
20365;SDS011;10341;49.894;8.822;2023-10-13T21:37:20;10.00;;;2.75;;
20365;SDS011;10341;49.894;8.822;2023-10-13T21:42:44;4.63;;;2.75;;
20365;SDS011;10341;49.894;8.822;2023-10-13T21:48:06;5.63;;;2.53;;
20365;SDS011;10341;49.894;8.822;2023-10-13T21:53:28;6.03;;;2.75;;
20365;SDS011;10341;49.894;8.822;2023-10-13T21:58:47;7.13;;;3.22;;
20365;SDS011;10341;49.894;8.822;2023-10-13T22:04:06;5.75;;;2.88;;
20365;SDS011;10341;49.894;8.822;2023-10-13T22:09:28;6.03;;;2.85;;
20365;SDS011;10341;49.894;8.822;2023-10-13T22:14:48;8.35;;;3.30;;
20365;SDS011;10341;49.894;8.822;2023-10-13T22:20:07;8.75;;;3.22;;
20365;SDS011;10341;49.894;8.822;2023-10-13T22:25:29;6.18;;;3.15;;
20365;SDS011;10341;49.894;8.822;2023-10-13T22:30:49;7.43;;;3.13;;
20365;SDS011;10341;49.894;8.822;2023-10-13T22:36:08;6.67;;;3.67;;
20365;SDS011;10341;49.894;8.822;2023-10-13T22:41:30;4.47;;;3.05;;
20365;SDS011;10341;49.894;8.822;2023-10-13T22:46:52;10.18;;;3.40;;
20365;SDS011;10341;49.894;8.822;2023-10-13T22:52:14;6.15;;;3.60;;
20365;SDS011;10341;49.894;8.822;2023-10-13T22:57:33;9.32;;;3.75;;
20365;SDS011;10341;49.894;8.822;2023-10-13T23:02:53;8.18;;;3.20;;
20365;SDS011;10341;49.894;8.822;2023-10-13T23:08:12;5.93;;;3.42;;
20365;SDS011;10341;49.894;8.822;2023-10-13T23:13:50;6.05;;;3.60;;
20365;SDS011;10341;49.894;8.822;2023-10-13T23:19:11;4.82;;;3.33;;
20365;SDS011;10341;49.894;8.822;2023-10-13T23:24:30;6.32;;;3.53;;
20365;SDS011;10341;49.894;8.822;2023-10-13T23:29:50;6.18;;;3.42;;
20365;SDS011;10341;49.894;8.822;2023-10-13T23:35:09;7.73;;;3.97;;
20365;SDS011;10341;49.894;8.822;2023-10-13T23:40:31;7.38;;;3.55;;
20365;SDS011;10341;49.894;8.822;2023-10-13T23:46:02;11.70;;;3.72;;
20365;SDS011;10341;49.894;8.822;2023-10-13T23:51:29;8.10;;;3.70;;
20365;SDS011;10341;49.894;8.822;2023-10-13T23:56:48;10.02;;;3.78;;
